sensor_id;sensor_type;location;lat;lon;timestamp;P1;durP1;ratioP1;P2;durP2;ratioP2
4895;SDS011;2463;49.948;8.472;2022-09-01T00:00:46;94.15;;;6.00;;
4895;SDS011;2463;49.948;8.472;2022-09-01T00:03:18;94.10;;;6.30;;
4895;SDS011;2463;49.948;8.472;2022-09-01T00:05:48;93.32;;;5.82;;
4895;SDS011;2463;49.948;8.472;2022-09-01T00:08:20;94.35;;;5.95;;
4895;SDS011;2463;49.948;8.472;2022-09-01T00:10:48;93.05;;;5.90;;
4895;SDS011;2463;49.948;8.472;2022-09-01T00:13:15;92.07;;;5.90;;
4895;SDS011;2463;49.948;8.472;2022-09-01T00:15:42;96.75;;;6.13;;
4895;SDS011;2463;49.948;8.472;2022-09-01T00:18:09;95.18;;;6.00;;
4895;SDS011;2463;49.948;8.472;2022-09-01T00:20:37;93.15;;;5.93;;
4895;SDS011;2463;49.948;8.472;2022-09-01T00:23:04;94.78;;;6.25;;
4895;SDS011;2463;49.948;8.472;2022-09-01T00:25:30;98.05;;;5.72;;
4895;SDS011;2463;49.948;8.472;2022-09-01T00:27:57;92.93;;;5.85;;
4895;SDS011;2463;49.948;8.472;2022-09-01T00:30:25;92.85;;;5.85;;
4895;SDS011;2463;49.948;8.472;2022-09-01T00:32:52;96.28;;;6.53;;
4895;SDS011;2463;49.948;8.472;2022-09-01T00:35:18;94.18;;;6.45;;
4895;SDS011;2463;49.948;8.472;2022-09-01T00:37:45;93.43;;;6.25;;
4895;SDS011;2463;49.948;8.472;2022-09-01T00:40:14;93.40;;;5.63;;
4895;SDS011;2463;49.948;8.472;2022-09-01T00:42:42;92.63;;;5.30;;
4895;SDS011;2463;49.948;8.472;2022-09-01T00:45:10;93.22;;;6.13;;
4895;SDS011;2463;49.948;8.472;2022-09-01T00:47:37;95.45;;;6.10;;
4895;SDS011;2463;49.948;8.472;2022-09-01T00:50:05;93.45;;;6.18;;
4895;SDS011;2463;49.948;8.472;2022-09-01T00:52:34;92.57;;;5.97;;
4895;SDS011;2463;49.948;8.472;2022-09-01T00:55:12;92.65;;;5.88;;
4895;SDS011;2463;49.948;8.472;2022-09-01T00:57:43;93.75;;;5.82;;
4895;SDS011;2463;49.948;8.472;2022-09-01T01:00:13;95.22;;;6.18;;
4895;SDS011;2463;49.948;8.472;2022-09-01T01:02:46;92.80;;;5.90;;
4895;SDS011;2463;49.948;8.472;2022-09-01T01:05:14;94.45;;;6.40;;
4895;SDS011;2463;49.948;8.472;2022-09-01T01:07:42;93.28;;;5.95;;
4895;SDS011;2463;49.948;8.472;2022-09-01T01:10:12;92.40;;;5.70;;
4895;SDS011;2463;49.948;8.472;2022-09-01T01:12:41;92.90;;;5.95;;
4895;SDS011;2463;49.948;8.472;2022-09-01T01:15:10;94.22;;;6.00;;
4895;SDS011;2463;49.948;8.472;2022-09-01T01:17:37;93.85;;;6.00;;
4895;SDS011;2463;49.948;8.472;2022-09-01T01:20:05;92.47;;;5.72;;
4895;SDS011;2463;49.948;8.472;2022-09-01T01:25:39;93.05;;;5.90;;
4895;SDS011;2463;49.948;8.472;2022-09-01T01:28:15;92.53;;;5.55;;
4895;SDS011;2463;49.948;8.472;2022-09-01T01:30:46;92.70;;;5.60;;
4895;SDS011;2463;49.948;8.472;2022-09-01T01:33:19;96.15;;;5.85;;
4895;SDS011;2463;49.948;8.472;2022-09-01T01:35:49;94.95;;;5.72;;
4895;SDS011;2463;49.948;8.472;2022-09-01T01:38:18;93.82;;;5.78;;
4895;SDS011;2463;49.948;8.472;2022-09-01T01:40:48;93.18;;;5.85;;
4895;SDS011;2463;49.948;8.472;2022-09-01T01:43:16;92.65;;;5.18;;
4895;SDS011;2463;49.948;8.472;2022-09-01T01:45:49;97.75;;;5.75;;
4895;SDS011;2463;49.948;8.472;2022-09-01T01:48:18;94.45;;;5.97;;
4895;SDS011;2463;49.948;8.472;2022-09-01T01:50:52;92.70;;;5.50;;
4895;SDS011;2463;49.948;8.472;2022-09-01T01:53:20;93.53;;;5.80;;
4895;SDS011;2463;49.948;8.472;2022-09-01T01:55:47;94.13;;;5.85;;
4895;SDS011;2463;49.948;8.472;2022-09-01T01:58:15;94.03;;;5.90;;
4895;SDS011;2463;49.948;8.472;2022-09-01T02:00:45;94.07;;;5.95;;
4895;SDS011;2463;49.948;8.472;2022-09-01T02:03:14;93.53;;;5.90;;
4895;SDS011;2463;49.948;8.472;2022-09-01T02:05:47;93.07;;;5.70;;
4895;SDS011;2463;49.948;8.472;2022-09-01T02:08:16;92.47;;;5.65;;
4895;SDS011;2463;49.948;8.472;2022-09-01T02:10:47;94.45;;;5.85;;
4895;SDS011;2463;49.948;8.472;2022-09-01T02:13:16;92.45;;;5.22;;
4895;SDS011;2463;49.948;8.472;2022-09-01T02:15:47;93.32;;;5.72;;
4895;SDS011;2463;49.948;8.472;2022-09-01T02:18:16;93.97;;;5.70;;
4895;SDS011;2463;49.948;8.472;2022-09-01T02:20:48;91.82;;;5.05;;
4895;SDS011;2463;49.948;8.472;2022-09-01T02:23:16;95.05;;;6.28;;
4895;SDS011;2463;49.948;8.472;2022-09-01T02:25:50;96.65;;;5.75;;
4895;SDS011;2463;49.948;8.472;2022-09-01T02:28:39;92.60;;;5.30;;
4895;SDS011;2463;49.948;8.472;2022-09-01T02:31:08;91.93;;;5.10;;
4895;SDS011;2463;49.948;8.472;2022-09-01T02:33:37;95.82;;;5.40;;
4895;SDS011;2463;49.948;8.472;2022-09-01T02:36:06;94.25;;;5.47;;
4895;SDS011;2463;49.948;8.472;2022-09-01T02:38:35;93.75;;;5.47;;
4895;SDS011;2463;49.948;8.472;2022-09-01T02:41:04;93.53;;;5.55;;
4895;SDS011;2463;49.948;8.472;2022-09-01T02:43:31;92.47;;;5.45;;
4895;SDS011;2463;49.948;8.472;2022-09-01T02:45:59;92.72;;;5.45;;
4895;SDS011;2463;49.948;8.472;2022-09-01T02:48:37;92.18;;;5.22;;
4895;SDS011;2463;49.948;8.472;2022-09-01T02:51:10;94.43;;;5.90;;
4895;SDS011;2463;49.948;8.472;2022-09-01T02:53:39;94.82;;;6.15;;
4895;SDS011;2463;49.948;8.472;2022-09-01T02:56:08;92.47;;;5.80;;
4895;SDS011;2463;49.948;8.472;2022-09-01T02:58:43;93.30;;;5.47;;
4895;SDS011;2463;49.948;8.472;2022-09-01T03:01:13;95.47;;;6.10;;
4895;SDS011;2463;49.948;8.472;2022-09-01T03:03:46;93.88;;;6.05;;
4895;SDS011;2463;49.948;8.472;2022-09-01T03:06:17;97.75;;;6.47;;
4895;SDS011;2463;49.948;8.472;2022-09-01T03:08:46;94.97;;;6.55;;
4895;SDS011;2463;49.948;8.472;2022-09-01T03:11:13;93.78;;;5.90;;
4895;SDS011;2463;49.948;8.472;2022-09-01T03:13:40;100.88;;;6.45;;
4895;SDS011;2463;49.948;8.472;2022-09-01T03:16:08;96.10;;;6.35;;
4895;SDS011;2463;49.948;8.472;2022-09-01T03:18:35;102.88;;;6.43;;
4895;SDS011;2463;49.948;8.472;2022-09-01T03:21:04;94.75;;;6.43;;
4895;SDS011;2463;49.948;8.472;2022-09-01T03:23:35;93.97;;;6.30;;
4895;SDS011;2463;49.948;8.472;2022-09-01T03:26:03;94.55;;;6.72;;
4895;SDS011;2463;49.948;8.472;2022-09-01T03:28:30;94.57;;;5.95;;
4895;SDS011;2463;49.948;8.472;2022-09-01T03:30:57;94.30;;;6.18;;
4895;SDS011;2463;49.948;8.472;2022-09-01T03:33:25;95.63;;;5.95;;
4895;SDS011;2463;49.948;8.472;2022-09-01T03:35:53;97.20;;;6.20;;
4895;SDS011;2463;49.948;8.472;2022-09-01T03:38:20;94.72;;;6.47;;
4895;SDS011;2463;49.948;8.472;2022-09-01T03:40:50;94.32;;;6.40;;
4895;SDS011;2463;49.948;8.472;2022-09-01T03:43:28;93.47;;;6.00;;
4895;SDS011;2463;49.948;8.472;2022-09-01T03:46:01;96.55;;;6.35;;
4895;SDS011;2463;49.948;8.472;2022-09-01T03:48:29;94.53;;;6.32;;
4895;SDS011;2463;49.948;8.472;2022-09-01T03:50:57;93.03;;;5.93;;
4895;SDS011;2463;49.948;8.472;2022-09-01T03:53:29;93.53;;;5.75;;
4895;SDS011;2463;49.948;8.472;2022-09-01T03:55:57;100.07;;;7.50;;
4895;SDS011;2463;49.948;8.472;2022-09-01T03:58:25;93.57;;;5.78;;
4895;SDS011;2463;49.948;8.472;2022-09-01T04:00:54;95.72;;;5.85;;
4895;SDS011;2463;49.948;8.472;2022-09-01T04:03:23;94.80;;;6.20;;
4895;SDS011;2463;49.948;8.472;2022-09-01T04:05:54;94.88;;;6.22;;
4895;SDS011;2463;49.948;8.472;2022-09-01T04:08:22;93.97;;;6.32;;
4895;SDS011;2463;49.948;8.472;2022-09-01T04:10:59;95.85;;;6.10;;
4895;SDS011;2463;49.948;8.472;2022-09-01T04:13:36;98.05;;;6.57;;
4895;SDS011;2463;49.948;8.472;2022-09-01T04:16:05;97.78;;;6.82;;
4895;SDS011;2463;49.948;8.472;2022-09-01T04:18:55;97.00;;;6.10;;
4895;SDS011;2463;49.948;8.472;2022-09-01T04:21:22;98.25;;;6.57;;
4895;SDS011;2463;49.948;8.472;2022-09-01T04:23:49;94.40;;;6.20;;
4895;SDS011;2463;49.948;8.472;2022-09-01T04:26:15;93.88;;;5.88;;
4895;SDS011;2463;49.948;8.472;2022-09-01T04:28:46;94.45;;;6.35;;
4895;SDS011;2463;49.948;8.472;2022-09-01T04:31:15;94.22;;;6.18;;
4895;SDS011;2463;49.948;8.472;2022-09-01T04:33:45;95.10;;;6.20;;
4895;SDS011;2463;49.948;8.472;2022-09-01T04:38:49;94.55;;;6.25;;
4895;SDS011;2463;49.948;8.472;2022-09-01T04:41:21;94.22;;;6.50;;
4895;SDS011;2463;49.948;8.472;2022-09-01T04:43:51;94.97;;;6.15;;
4895;SDS011;2463;49.948;8.472;2022-09-01T04:46:22;95.05;;;6.35;;
4895;SDS011;2463;49.948;8.472;2022-09-01T04:48:51;93.88;;;6.20;;
4895;SDS011;2463;49.948;8.472;2022-09-01T04:51:18;93.32;;;5.80;;
4895;SDS011;2463;49.948;8.472;2022-09-01T04:53:46;94.65;;;6.35;;
4895;SDS011;2463;49.948;8.472;2022-09-01T04:56:17;97.35;;;5.90;;
4895;SDS011;2463;49.948;8.472;2022-09-01T04:58:46;98.55;;;6.18;;
4895;SDS011;2463;49.948;8.472;2022-09-01T05:01:16;94.75;;;6.10;;
4895;SDS011;2463;49.948;8.472;2022-09-01T05:03:46;94.93;;;6.50;;
4895;SDS011;2463;49.948;8.472;2022-09-01T05:06:22;93.82;;;6.10;;
4895;SDS011;2463;49.948;8.472;2022-09-01T05:08:49;95.90;;;5.72;;
4895;SDS011;2463;49.948;8.472;2022-09-01T05:11:17;97.35;;;6.43;;
4895;SDS011;2463;49.948;8.472;2022-09-01T05:13:45;96.45;;;6.13;;
4895;SDS011;2463;49.948;8.472;2022-09-01T05:16:14;95.93;;;5.93;;
4895;SDS011;2463;49.948;8.472;2022-09-01T05:18:50;93.10;;;6.20;;
4895;SDS011;2463;49.948;8.472;2022-09-01T05:21:19;97.75;;;6.00;;
4895;SDS011;2463;49.948;8.472;2022-09-01T05:23:53;92.78;;;5.60;;
4895;SDS011;2463;49.948;8.472;2022-09-01T05:26:29;96.32;;;6.30;;
4895;SDS011;2463;49.948;8.472;2022-09-01T05:28:59;95.15;;;5.60;;
4895;SDS011;2463;49.948;8.472;2022-09-01T05:31:29;93.88;;;6.03;;
4895;SDS011;2463;49.948;8.472;2022-09-01T05:34:00;95.10;;;5.50;;
4895;SDS011;2463;49.948;8.472;2022-09-01T05:36:28;93.70;;;5.55;;
4895;SDS011;2463;49.948;8.472;2022-09-01T05:38:59;93.85;;;6.10;;
4895;SDS011;2463;49.948;8.472;2022-09-01T05:41:27;105.07;;;6.10;;
4895;SDS011;2463;49.948;8.472;2022-09-01T05:43:54;94.30;;;5.57;;
4895;SDS011;2463;49.948;8.472;2022-09-01T05:46:26;94.30;;;6.07;;
4895;SDS011;2463;49.948;8.472;2022-09-01T05:48:54;93.43;;;5.70;;
4895;SDS011;2463;49.948;8.472;2022-09-01T05:51:22;98.70;;;5.55;;
4895;SDS011;2463;49.948;8.472;2022-09-01T05:54:10;92.07;;;5.15;;
4895;SDS011;2463;49.948;8.472;2022-09-01T05:56:37;94.40;;;6.10;;
4895;SDS011;2463;49.948;8.472;2022-09-01T05:59:09;93.68;;;5.32;;
4895;SDS011;2463;49.948;8.472;2022-09-01T06:01:53;92.95;;;6.38;;
4895;SDS011;2463;49.948;8.472;2022-09-01T06:04:20;91.38;;;5.07;;
4895;SDS011;2463;49.948;8.472;2022-09-01T06:06:48;93.47;;;5.43;;
4895;SDS011;2463;49.948;8.472;2022-09-01T06:09:37;92.43;;;5.60;;
4895;SDS011;2463;49.948;8.472;2022-09-01T06:12:05;92.90;;;5.60;;
4895;SDS011;2463;49.948;8.472;2022-09-01T06:14:34;92.07;;;5.32;;
4895;SDS011;2463;49.948;8.472;2022-09-01T06:17:01;92.32;;;5.10;;
4895;SDS011;2463;49.948;8.472;2022-09-01T06:19:28;91.93;;;4.85;;
4895;SDS011;2463;49.948;8.472;2022-09-01T06:22:02;91.93;;;5.45;;
4895;SDS011;2463;49.948;8.472;2022-09-01T06:24:29;100.18;;;5.15;;
4895;SDS011;2463;49.948;8.472;2022-09-01T06:26:56;91.63;;;5.32;;
4895;SDS011;2463;49.948;8.472;2022-09-01T06:29:24;91.75;;;4.65;;
4895;SDS011;2463;49.948;8.472;2022-09-01T06:31:50;98.10;;;5.40;;
4895;SDS011;2463;49.948;8.472;2022-09-01T06:34:18;93.47;;;5.38;;
4895;SDS011;2463;49.948;8.472;2022-09-01T06:36:46;94.53;;;4.60;;
4895;SDS011;2463;49.948;8.472;2022-09-01T06:39:16;91.72;;;5.13;;
4895;SDS011;2463;49.948;8.472;2022-09-01T06:41:46;90.65;;;5.05;;
4895;SDS011;2463;49.948;8.472;2022-09-01T06:44:14;93.13;;;5.20;;
4895;SDS011;2463;49.948;8.472;2022-09-01T06:46:48;93.57;;;4.78;;
4895;SDS011;2463;49.948;8.472;2022-09-01T06:49:17;90.63;;;4.97;;
4895;SDS011;2463;49.948;8.472;2022-09-01T06:51:48;91.43;;;4.70;;
4895;SDS011;2463;49.948;8.472;2022-09-01T06:54:17;91.22;;;4.85;;
4895;SDS011;2463;49.948;8.472;2022-09-01T06:56:46;90.65;;;5.10;;
4895;SDS011;2463;49.948;8.472;2022-09-01T06:59:16;90.30;;;4.60;;
4895;SDS011;2463;49.948;8.472;2022-09-01T07:01:43;90.70;;;4.90;;
4895;SDS011;2463;49.948;8.472;2022-09-01T07:04:14;90.28;;;4.22;;
4895;SDS011;2463;49.948;8.472;2022-09-01T07:06:45;90.45;;;4.30;;
4895;SDS011;2463;49.948;8.472;2022-09-01T07:09:36;89.40;;;4.40;;
4895;SDS011;2463;49.948;8.472;2022-09-01T07:12:15;87.30;;;3.80;;
4895;SDS011;2463;49.948;8.472;2022-09-01T07:14:53;87.37;;;4.07;;
4895;SDS011;2463;49.948;8.472;2022-09-01T07:17:40;87.67;;;4.00;;
4895;SDS011;2463;49.948;8.472;2022-09-01T07:20:08;87.60;;;4.00;;
4895;SDS011;2463;49.948;8.472;2022-09-01T07:22:53;85.57;;;3.87;;
4895;SDS011;2463;49.948;8.472;2022-09-01T07:25:29;85.97;;;3.80;;
4895;SDS011;2463;49.948;8.472;2022-09-01T07:28:17;90.03;;;3.70;;
4895;SDS011;2463;49.948;8.472;2022-09-01T07:30:50;87.07;;;3.67;;
4895;SDS011;2463;49.948;8.472;2022-09-01T07:33:22;86.77;;;3.90;;
4895;SDS011;2463;49.948;8.472;2022-09-01T07:36:09;85.57;;;3.90;;
4895;SDS011;2463;49.948;8.472;2022-09-01T07:38:56;88.33;;;4.80;;
4895;SDS011;2463;49.948;8.472;2022-09-01T07:41:42;86.10;;;3.87;;
4895;SDS011;2463;49.948;8.472;2022-09-01T07:44:29;84.80;;;3.63;;
4895;SDS011;2463;49.948;8.472;2022-09-01T07:46:56;85.57;;;3.80;;
4895;SDS011;2463;49.948;8.472;2022-09-01T07:49:43;86.97;;;3.83;;
4895;SDS011;2463;49.948;8.472;2022-09-01T07:52:29;88.87;;;4.50;;
4895;SDS011;2463;49.948;8.472;2022-09-01T07:54:56;89.87;;;4.07;;
4895;SDS011;2463;49.948;8.472;2022-09-01T07:57:23;85.47;;;3.87;;
4895;SDS011;2463;49.948;8.472;2022-09-01T07:59:50;85.27;;;3.80;;
4895;SDS011;2463;49.948;8.472;2022-09-01T08:02:18;85.07;;;4.00;;
4895;SDS011;2463;49.948;8.472;2022-09-01T08:04:45;86.90;;;3.80;;
4895;SDS011;2463;49.948;8.472;2022-09-01T08:07:13;83.73;;;3.80;;
4895;SDS011;2463;49.948;8.472;2022-09-01T08:09:41;83.40;;;3.50;;
4895;SDS011;2463;49.948;8.472;2022-09-01T08:12:09;82.77;;;3.40;;
4895;SDS011;2463;49.948;8.472;2022-09-01T08:14:36;82.03;;;3.10;;
4895;SDS011;2463;49.948;8.472;2022-09-01T08:17:03;85.00;;;3.63;;
4895;SDS011;2463;49.948;8.472;2022-09-01T08:19:50;82.77;;;3.30;;
4895;SDS011;2463;49.948;8.472;2022-09-01T08:22:18;84.23;;;3.30;;
4895;SDS011;2463;49.948;8.472;2022-09-01T08:24:49;85.40;;;3.30;;
4895;SDS011;2463;49.948;8.472;2022-09-01T08:27:17;84.60;;;3.80;;
4895;SDS011;2463;49.948;8.472;2022-09-01T08:29:44;85.70;;;3.87;;
4895;SDS011;2463;49.948;8.472;2022-09-01T08:32:11;88.93;;;4.30;;
4895;SDS011;2463;49.948;8.472;2022-09-01T08:34:38;85.10;;;4.13;;
4895;SDS011;2463;49.948;8.472;2022-09-01T08:37:05;87.37;;;4.20;;
4895;SDS011;2463;49.948;8.472;2022-09-01T08:39:31;86.73;;;4.13;;
4895;SDS011;2463;49.948;8.472;2022-09-01T08:44:53;85.97;;;4.30;;
4895;SDS011;2463;49.948;8.472;2022-09-01T08:47:28;86.63;;;4.20;;
4895;SDS011;2463;49.948;8.472;2022-09-01T08:50:15;86.27;;;3.87;;
4895;SDS011;2463;49.948;8.472;2022-09-01T08:55:39;85.40;;;4.00;;
4895;SDS011;2463;49.948;8.472;2022-09-01T08:58:09;85.20;;;4.17;;
4895;SDS011;2463;49.948;8.472;2022-09-01T09:00:41;86.87;;;4.50;;
4895;SDS011;2463;49.948;8.472;2022-09-01T09:06:16;84.67;;;4.03;;
4895;SDS011;2463;49.948;8.472;2022-09-01T09:09:13;85.57;;;4.03;;
4895;SDS011;2463;49.948;8.472;2022-09-01T09:11:43;86.40;;;4.50;;
4895;SDS011;2463;49.948;8.472;2022-09-01T09:14:50;87.40;;;4.50;;
4895;SDS011;2463;49.948;8.472;2022-09-01T09:17:19;89.03;;;4.47;;
4895;SDS011;2463;49.948;8.472;2022-09-01T09:19:51;86.07;;;3.90;;
4895;SDS011;2463;49.948;8.472;2022-09-01T09:22:19;85.30;;;3.90;;
4895;SDS011;2463;49.948;8.472;2022-09-01T09:24:50;85.20;;;4.00;;
4895;SDS011;2463;49.948;8.472;2022-09-01T09:29:56;86.07;;;4.00;;
4895;SDS011;2463;49.948;8.472;2022-09-01T09:32:24;83.27;;;3.83;;
4895;SDS011;2463;49.948;8.472;2022-09-01T09:35:35;84.20;;;3.60;;
4895;SDS011;2463;49.948;8.472;2022-09-01T09:49:06;82.57;;;3.10;;
4895;SDS011;2463;49.948;8.472;2022-09-01T09:51:39;81.27;;;3.20;;
4895;SDS011;2463;49.948;8.472;2022-09-01T09:54:22;80.73;;;3.13;;
4895;SDS011;2463;49.948;8.472;2022-09-01T09:59:37;81.70;;;3.30;;
4895;SDS011;2463;49.948;8.472;2022-09-01T10:02:28;79.83;;;3.27;;
4895;SDS011;2463;49.948;8.472;2022-09-01T10:05:20;79.63;;;3.03;;
4895;SDS011;2463;49.948;8.472;2022-09-01T10:08:03;81.20;;;2.90;;
4895;SDS011;2463;49.948;8.472;2022-09-01T10:10:45;82.67;;;3.10;;
4895;SDS011;2463;49.948;8.472;2022-09-01T10:13:24;80.57;;;2.70;;
4895;SDS011;2463;49.948;8.472;2022-09-01T10:15:58;79.37;;;2.83;;
4895;SDS011;2463;49.948;8.472;2022-09-01T10:18:35;79.37;;;2.90;;
4895;SDS011;2463;49.948;8.472;2022-09-01T10:21:07;79.40;;;3.03;;
4895;SDS011;2463;49.948;8.472;2022-09-01T10:23:38;78.07;;;2.60;;
4895;SDS011;2463;49.948;8.472;2022-09-01T10:26:14;80.07;;;2.97;;
4895;SDS011;2463;49.948;8.472;2022-09-01T10:31:41;80.20;;;2.80;;
4895;SDS011;2463;49.948;8.472;2022-09-01T10:34:10;78.17;;;2.70;;
4895;SDS011;2463;49.948;8.472;2022-09-01T10:36:45;78.83;;;2.80;;
4895;SDS011;2463;49.948;8.472;2022-09-01T10:39:21;81.80;;;3.00;;
4895;SDS011;2463;49.948;8.472;2022-09-01T10:41:59;79.13;;;2.93;;
4895;SDS011;2463;49.948;8.472;2022-09-01T10:44:34;81.40;;;3.03;;
4895;SDS011;2463;49.948;8.472;2022-09-01T10:47:37;84.20;;;2.67;;
4895;SDS011;2463;49.948;8.472;2022-09-01T10:50:00;78.77;;;2.90;;
4895;SDS011;2463;49.948;8.472;2022-09-01T10:55:18;80.97;;;3.37;;
4895;SDS011;2463;49.948;8.472;2022-09-01T10:57:55;80.47;;;3.37;;
4895;SDS011;2463;49.948;8.472;2022-09-01T11:01:04;80.40;;;3.10;;
4895;SDS011;2463;49.948;8.472;2022-09-01T11:03:52;85.60;;;3.00;;
4895;SDS011;2463;49.948;8.472;2022-09-01T11:06:32;85.10;;;3.00;;
4895;SDS011;2463;49.948;8.472;2022-09-01T11:09:01;84.10;;;3.37;;
4895;SDS011;2463;49.948;8.472;2022-09-01T11:14:15;83.30;;;3.60;;
4895;SDS011;2463;49.948;8.472;2022-09-01T11:28:10;81.27;;;3.30;;
4895;SDS011;2463;49.948;8.472;2022-09-01T11:31:19;81.47;;;3.30;;
4895;SDS011;2463;49.948;8.472;2022-09-01T11:33:55;83.23;;;3.10;;
4895;SDS011;2463;49.948;8.472;2022-09-01T11:39:30;81.07;;;3.30;;
4895;SDS011;2463;49.948;8.472;2022-09-01T11:42:38;80.37;;;3.10;;
4895;SDS011;2463;49.948;8.472;2022-09-01T11:50:07;80.17;;;3.20;;
4895;SDS011;2463;49.948;8.472;2022-09-01T11:58:03;80.43;;;3.10;;
4895;SDS011;2463;49.948;8.472;2022-09-01T12:00:32;79.87;;;3.10;;
4895;SDS011;2463;49.948;8.472;2022-09-01T12:03:04;81.77;;;2.83;;
4895;SDS011;2463;49.948;8.472;2022-09-01T12:05:46;80.20;;;3.30;;
4895;SDS011;2463;49.948;8.472;2022-09-01T12:08:19;79.87;;;3.03;;
4895;SDS011;2463;49.948;8.472;2022-09-01T12:10:49;81.27;;;3.20;;
4895;SDS011;2463;49.948;8.472;2022-09-01T12:13:17;80.57;;;3.10;;
4895;SDS011;2463;49.948;8.472;2022-09-01T12:15:51;80.40;;;3.00;;
4895;SDS011;2463;49.948;8.472;2022-09-01T12:18:44;79.60;;;2.60;;
4895;SDS011;2463;49.948;8.472;2022-09-01T12:21:18;78.97;;;2.90;;
4895;SDS011;2463;49.948;8.472;2022-09-01T12:24:10;80.30;;;2.97;;
4895;SDS011;2463;49.948;8.472;2022-09-01T12:26:41;87.70;;;3.73;;
4895;SDS011;2463;49.948;8.472;2022-09-01T12:29:09;80.17;;;3.07;;
4895;SDS011;2463;49.948;8.472;2022-09-01T12:31:39;79.00;;;2.70;;
4895;SDS011;2463;49.948;8.472;2022-09-01T12:34:24;80.30;;;3.00;;
4895;SDS011;2463;49.948;8.472;2022-09-01T12:39:44;80.87;;;2.83;;
4895;SDS011;2463;49.948;8.472;2022-09-01T12:44:59;83.67;;;4.30;;
4895;SDS011;2463;49.948;8.472;2022-09-01T12:50:35;81.27;;;3.13;;
4895;SDS011;2463;49.948;8.472;2022-09-01T12:52:59;81.60;;;3.30;;
4895;SDS011;2463;49.948;8.472;2022-09-01T12:55:28;83.73;;;3.23;;
4895;SDS011;2463;49.948;8.472;2022-09-01T12:58:19;87.13;;;3.23;;
4895;SDS011;2463;49.948;8.472;2022-09-01T13:00:55;83.10;;;3.33;;
4895;SDS011;2463;49.948;8.472;2022-09-01T13:03:42;81.10;;;3.23;;
4895;SDS011;2463;49.948;8.472;2022-09-01T13:06:28;81.10;;;3.07;;
4895;SDS011;2463;49.948;8.472;2022-09-01T13:08:55;81.40;;;3.60;;
4895;SDS011;2463;49.948;8.472;2022-09-01T13:11:22;81.37;;;3.30;;
4895;SDS011;2463;49.948;8.472;2022-09-01T13:13:49;83.43;;;3.67;;
4895;SDS011;2463;49.948;8.472;2022-09-01T13:16:16;81.20;;;3.20;;
4895;SDS011;2463;49.948;8.472;2022-09-01T13:18:43;82.73;;;3.10;;
4895;SDS011;2463;49.948;8.472;2022-09-01T13:21:30;80.60;;;3.30;;
4895;SDS011;2463;49.948;8.472;2022-09-01T13:23:58;79.93;;;3.10;;
4895;SDS011;2463;49.948;8.472;2022-09-01T13:26:26;79.97;;;3.20;;
4895;SDS011;2463;49.948;8.472;2022-09-01T13:28:56;80.47;;;3.30;;
4895;SDS011;2463;49.948;8.472;2022-09-01T13:31:24;81.83;;;3.53;;
4895;SDS011;2463;49.948;8.472;2022-09-01T13:33:56;79.77;;;2.97;;
4895;SDS011;2463;49.948;8.472;2022-09-01T13:36:43;81.33;;;3.40;;
4895;SDS011;2463;49.948;8.472;2022-09-01T13:39:16;83.67;;;3.47;;
4895;SDS011;2463;49.948;8.472;2022-09-01T13:41:43;80.50;;;3.47;;
4895;SDS011;2463;49.948;8.472;2022-09-01T13:44:12;81.07;;;3.60;;
4895;SDS011;2463;49.948;8.472;2022-09-01T13:46:39;81.53;;;3.47;;
4895;SDS011;2463;49.948;8.472;2022-09-01T13:49:26;82.07;;;3.50;;
4895;SDS011;2463;49.948;8.472;2022-09-01T13:52:13;80.47;;;3.23;;
4895;SDS011;2463;49.948;8.472;2022-09-01T13:54:40;85.47;;;3.40;;
4895;SDS011;2463;49.948;8.472;2022-09-01T13:57:09;83.00;;;3.67;;
4895;SDS011;2463;49.948;8.472;2022-09-01T13:59:37;81.90;;;3.47;;
4895;SDS011;2463;49.948;8.472;2022-09-01T14:02:04;83.47;;;3.60;;
4895;SDS011;2463;49.948;8.472;2022-09-01T14:04:31;83.77;;;3.50;;
4895;SDS011;2463;49.948;8.472;2022-09-01T14:06:58;82.33;;;3.50;;
4895;SDS011;2463;49.948;8.472;2022-09-01T14:09:25;81.50;;;3.43;;
4895;SDS011;2463;49.948;8.472;2022-09-01T14:11:52;82.50;;;3.20;;
4895;SDS011;2463;49.948;8.472;2022-09-01T14:14:19;81.70;;;3.37;;
4895;SDS011;2463;49.948;8.472;2022-09-01T14:16:47;82.30;;;3.73;;
4895;SDS011;2463;49.948;8.472;2022-09-01T14:19:14;83.80;;;3.50;;
4895;SDS011;2463;49.948;8.472;2022-09-01T14:21:42;81.40;;;3.10;;
4895;SDS011;2463;49.948;8.472;2022-09-01T14:24:10;82.97;;;3.50;;
4895;SDS011;2463;49.948;8.472;2022-09-01T14:26:39;84.73;;;3.40;;
4895;SDS011;2463;49.948;8.472;2022-09-01T14:29:06;82.60;;;3.60;;
4895;SDS011;2463;49.948;8.472;2022-09-01T14:31:33;82.27;;;3.73;;
4895;SDS011;2463;49.948;8.472;2022-09-01T14:34:01;83.87;;;4.17;;
4895;SDS011;2463;49.948;8.472;2022-09-01T14:36:29;82.67;;;4.00;;
4895;SDS011;2463;49.948;8.472;2022-09-01T14:38:56;85.83;;;3.90;;
4895;SDS011;2463;49.948;8.472;2022-09-01T14:41:24;83.10;;;3.50;;
4895;SDS011;2463;49.948;8.472;2022-09-01T14:43:52;86.53;;;3.90;;
4895;SDS011;2463;49.948;8.472;2022-09-01T14:46:24;85.40;;;3.80;;
4895;SDS011;2463;49.948;8.472;2022-09-01T14:48:51;83.00;;;3.90;;
4895;SDS011;2463;49.948;8.472;2022-09-01T14:51:26;83.03;;;4.00;;
4895;SDS011;2463;49.948;8.472;2022-09-01T14:54:14;83.87;;;3.70;;
4895;SDS011;2463;49.948;8.472;2022-09-01T14:56:41;86.70;;;4.93;;
4895;SDS011;2463;49.948;8.472;2022-09-01T14:59:28;82.47;;;3.87;;
4895;SDS011;2463;49.948;8.472;2022-09-01T15:01:55;82.97;;;3.43;;
4895;SDS011;2463;49.948;8.472;2022-09-01T15:04:22;82.20;;;3.75;;
4895;SDS011;2463;49.948;8.472;2022-09-01T15:06:49;83.40;;;3.70;;
4895;SDS011;2463;49.948;8.472;2022-09-01T15:09:16;83.93;;;3.30;;
4895;SDS011;2463;49.948;8.472;2022-09-01T15:11:44;82.23;;;3.33;;
4895;SDS011;2463;49.948;8.472;2022-09-01T15:14:11;86.30;;;3.67;;
4895;SDS011;2463;49.948;8.472;2022-09-01T15:16:38;82.37;;;3.57;;
4895;SDS011;2463;49.948;8.472;2022-09-01T15:19:07;82.60;;;3.40;;
4895;SDS011;2463;49.948;8.472;2022-09-01T15:21:37;85.07;;;3.77;;
4895;SDS011;2463;49.948;8.472;2022-09-01T15:24:06;83.10;;;3.87;;
4895;SDS011;2463;49.948;8.472;2022-09-01T15:26:34;84.77;;;3.40;;
4895;SDS011;2463;49.948;8.472;2022-09-01T15:29:01;84.17;;;3.83;;
4895;SDS011;2463;49.948;8.472;2022-09-01T15:31:29;83.90;;;4.23;;
4895;SDS011;2463;49.948;8.472;2022-09-01T15:34:00;85.00;;;3.47;;
4895;SDS011;2463;49.948;8.472;2022-09-01T15:36:28;84.03;;;3.80;;
4895;SDS011;2463;49.948;8.472;2022-09-01T15:38:56;84.60;;;3.60;;
4895;SDS011;2463;49.948;8.472;2022-09-01T15:41:25;83.60;;;3.50;;
4895;SDS011;2463;49.948;8.472;2022-09-01T15:43:53;83.40;;;3.70;;
4895;SDS011;2463;49.948;8.472;2022-09-01T15:46:21;85.30;;;3.53;;
4895;SDS011;2463;49.948;8.472;2022-09-01T15:48:48;85.20;;;3.60;;
4895;SDS011;2463;49.948;8.472;2022-09-01T15:53:55;84.33;;;3.70;;
4895;SDS011;2463;49.948;8.472;2022-09-01T15:56:25;83.50;;;3.70;;
4895;SDS011;2463;49.948;8.472;2022-09-01T15:58:52;83.87;;;3.40;;
4895;SDS011;2463;49.948;8.472;2022-09-01T16:01:28;85.43;;;3.80;;
4895;SDS011;2463;49.948;8.472;2022-09-01T16:03:57;83.57;;;3.50;;
4895;SDS011;2463;49.948;8.472;2022-09-01T16:06:23;83.60;;;3.43;;
4895;SDS011;2463;49.948;8.472;2022-09-01T16:08:51;83.17;;;3.73;;
4895;SDS011;2463;49.948;8.472;2022-09-01T16:11:22;84.57;;;3.60;;
4895;SDS011;2463;49.948;8.472;2022-09-01T16:13:51;86.57;;;3.53;;
4895;SDS011;2463;49.948;8.472;2022-09-01T16:16:33;85.97;;;3.40;;
4895;SDS011;2463;49.948;8.472;2022-09-01T16:24:24;85.40;;;3.90;;
4895;SDS011;2463;49.948;8.472;2022-09-01T16:26:51;84.87;;;4.10;;
4895;SDS011;2463;49.948;8.472;2022-09-01T16:29:23;85.10;;;4.70;;
4895;SDS011;2463;49.948;8.472;2022-09-01T16:31:57;88.57;;;5.23;;
4895;SDS011;2463;49.948;8.472;2022-09-01T16:34:24;99.03;;;7.30;;
4895;SDS011;2463;49.948;8.472;2022-09-01T16:39:29;87.43;;;5.10;;
4895;SDS011;2463;49.948;8.472;2022-09-01T16:45:41;84.70;;;3.80;;
4895;SDS011;2463;49.948;8.472;2022-09-01T16:48:25;84.87;;;4.03;;
4895;SDS011;2463;49.948;8.472;2022-09-01T16:51:20;87.60;;;5.03;;
4895;SDS011;2463;49.948;8.472;2022-09-01T16:53:56;87.67;;;5.50;;
4895;SDS011;2463;49.948;8.472;2022-09-01T17:02:16;87.23;;;4.60;;